SBGL/GIG METAR and TAF weather

Enter ICAO airport designator
Station Type Date Time Source
SBGL METAR 2022/06/28 09:00 UTC NOAA

SBGL 280900Z 32003KT CAVOK 13/12 Q1019


Station Type Date Time Source
SBGL Decoded METAR 2022/06/28 09:00 UTC NOAA

Galeao, Brazil (SBGL) 22-49S 043-15W 42M
Jun 28, 2022 - 05:00 AM EDT / 2022.06.28 0900 UTC
Wind: from the NW (320 degrees) at 3 MPH (3 KT):0
Visibility: greater than 7 mile(s):0
Temperature: 55 F (13 C)
Dew Point: 53 F (12 C)
Relative Humidity: 93%
Pressure (altimeter): 30.09 in. Hg (1019 hPa)
ob: SBGL 280900Z 32003KT CAVOK 13/12 Q1019
cycle: 9

Station Type Date Time Source
SBGL TAF 2022/06/28 06:06 UTC NOAA

TAF SBGL 280100Z 2806/2912 05005KT 8000 SCT020 TN14/2809Z TX24/2817Z
BECMG 2807/2809 33005KT 7000 SCT015 PROB40 2809/2812 3000 BR SCT012
BECMG 2812/2815 04005KT 9999 FEW020
BECMG 2816/2818 14010KT
BECMG 2820/2823 09005KT
BECMG 2903/2906 32005KT 7000 SCT015
BECMG 2909/2912 4000 BR BKN013
RMK PHN

Example: see airport list